sensor_id;sensor_type;location;lat;lon;timestamp;P1;durP1;ratioP1;P2;durP2;ratioP2
51985;SDS011;38002;53.296;6.600;2023-03-23T00:03:26;1.93;;;1.60;;
51985;SDS011;38002;53.296;6.600;2023-03-23T00:08:28;2.40;;;1.63;;
51985;SDS011;38002;53.296;6.600;2023-03-23T00:13:29;2.58;;;1.85;;
51985;SDS011;38002;53.296;6.600;2023-03-23T00:18:29;3.35;;;2.65;;
51985;SDS011;38002;53.296;6.600;2023-03-23T00:23:29;4.63;;;2.78;;
51985;SDS011;38002;53.296;6.600;2023-03-23T00:28:30;3.30;;;3.00;;
51985;SDS011;38002;53.296;6.600;2023-03-23T00:33:31;3.47;;;2.97;;
51985;SDS011;38002;53.296;6.600;2023-03-23T00:38:38;4.30;;;3.45;;
51985;SDS011;38002;53.296;6.600;2023-03-23T00:43:40;3.28;;;2.97;;
51985;SDS011;38002;53.296;6.600;2023-03-23T00:48:41;5.38;;;3.53;;
51985;SDS011;38002;53.296;6.600;2023-03-23T00:53:44;5.00;;;4.25;;
51985;SDS011;38002;53.296;6.600;2023-03-23T00:58:45;8.53;;;4.43;;
51985;SDS011;38002;53.296;6.600;2023-03-23T01:03:46;9.65;;;8.65;;
51985;SDS011;38002;53.296;6.600;2023-03-23T01:08:46;17.10;;;11.30;;
51985;SDS011;38002;53.296;6.600;2023-03-23T01:13:47;16.77;;;11.25;;
51985;SDS011;38002;53.296;6.600;2023-03-23T01:18:47;16.95;;;9.90;;
51985;SDS011;38002;53.296;6.600;2023-03-23T01:23:48;10.15;;;7.25;;
51985;SDS011;38002;53.296;6.600;2023-03-23T01:28:48;6.20;;;5.55;;
51985;SDS011;38002;53.296;6.600;2023-03-23T01:33:50;7.00;;;5.23;;
51985;SDS011;38002;53.296;6.600;2023-03-23T01:38:54;4.97;;;3.95;;
51985;SDS011;38002;53.296;6.600;2023-03-23T01:49:39;4.13;;;3.60;;
51985;SDS011;38002;53.296;6.600;2023-03-23T01:54:33;7.45;;;4.88;;
51985;SDS011;38002;53.296;6.600;2023-03-23T01:59:36;10.82;;;6.32;;
51985;SDS011;38002;53.296;6.600;2023-03-23T02:04:37;7.57;;;6.23;;
51985;SDS011;38002;53.296;6.600;2023-03-23T02:09:39;13.98;;;6.90;;
51985;SDS011;38002;53.296;6.600;2023-03-23T02:14:39;17.85;;;6.63;;
51985;SDS011;38002;53.296;6.600;2023-03-23T02:24:55;12.60;;;6.05;;
51985;SDS011;38002;53.296;6.600;2023-03-23T02:35:28;8.82;;;5.90;;
51985;SDS011;38002;53.296;6.600;2023-03-23T02:40:38;7.80;;;5.68;;
51985;SDS011;38002;53.296;6.600;2023-03-23T02:45:41;12.68;;;5.80;;
51985;SDS011;38002;53.296;6.600;2023-03-23T02:50:45;9.05;;;5.15;;
51985;SDS011;38002;53.296;6.600;2023-03-23T02:55:49;8.27;;;5.25;;
51985;SDS011;38002;53.296;6.600;2023-03-23T03:00:53;7.10;;;5.03;;
51985;SDS011;38002;53.296;6.600;2023-03-23T03:11:07;11.20;;;4.68;;
51985;SDS011;38002;53.296;6.600;2023-03-23T03:21:18;6.68;;;4.03;;
51985;SDS011;38002;53.296;6.600;2023-03-23T03:26:25;5.63;;;3.70;;
51985;SDS011;38002;53.296;6.600;2023-03-23T03:36:30;8.98;;;4.20;;
51985;SDS011;38002;53.296;6.600;2023-03-23T03:41:34;6.90;;;4.50;;
51985;SDS011;38002;53.296;6.600;2023-03-23T03:46:35;5.53;;;3.83;;
51985;SDS011;38002;53.296;6.600;2023-03-23T03:51:36;4.03;;;3.67;;
51985;SDS011;38002;53.296;6.600;2023-03-23T03:56:37;5.25;;;3.22;;
51985;SDS011;38002;53.296;6.600;2023-03-23T04:01:40;9.73;;;3.67;;
51985;SDS011;38002;53.296;6.600;2023-03-23T04:06:41;5.13;;;3.50;;
51985;SDS011;38002;53.296;6.600;2023-03-23T04:11:41;9.68;;;3.83;;
51985;SDS011;38002;53.296;6.600;2023-03-23T04:16:42;6.22;;;3.22;;
51985;SDS011;38002;53.296;6.600;2023-03-23T04:21:43;8.25;;;3.60;;
51985;SDS011;38002;53.296;6.600;2023-03-23T04:26:49;8.20;;;2.78;;
51985;SDS011;38002;53.296;6.600;2023-03-23T04:31:52;3.33;;;3.03;;
51985;SDS011;38002;53.296;6.600;2023-03-23T04:36:52;3.22;;;2.20;;
51985;SDS011;38002;53.296;6.600;2023-03-23T04:41:53;2.97;;;1.92;;
51985;SDS011;38002;53.296;6.600;2023-03-23T04:46:54;4.22;;;1.90;;
51985;SDS011;38002;53.296;6.600;2023-03-23T04:51:54;4.30;;;1.67;;
51985;SDS011;38002;53.296;6.600;2023-03-23T04:56:54;1.30;;;1.20;;
51985;SDS011;38002;53.296;6.600;2023-03-23T05:01:55;6.28;;;1.55;;
51985;SDS011;38002;53.296;6.600;2023-03-23T05:06:56;5.03;;;1.60;;
51985;SDS011;38002;53.296;6.600;2023-03-23T05:11:56;5.88;;;1.65;;
51985;SDS011;38002;53.296;6.600;2023-03-23T05:16:59;4.90;;;1.38;;
51985;SDS011;38002;53.296;6.600;2023-03-23T05:21:59;7.35;;;1.67;;
51985;SDS011;38002;53.296;6.600;2023-03-23T05:27:03;11.68;;;2.40;;
51985;SDS011;38002;53.296;6.600;2023-03-23T05:32:03;12.25;;;2.25;;
51985;SDS011;38002;53.296;6.600;2023-03-23T05:37:05;9.70;;;2.63;;
51985;SDS011;38002;53.296;6.600;2023-03-23T05:42:06;10.10;;;3.28;;
51985;SDS011;38002;53.296;6.600;2023-03-23T05:47:07;15.13;;;2.85;;
51985;SDS011;38002;53.296;6.600;2023-03-23T05:52:08;11.27;;;2.72;;
51985;SDS011;38002;53.296;6.600;2023-03-23T05:57:09;15.88;;;2.85;;
51985;SDS011;38002;53.296;6.600;2023-03-23T06:02:10;16.45;;;2.95;;
51985;SDS011;38002;53.296;6.600;2023-03-23T06:07:11;18.48;;;3.00;;
51985;SDS011;38002;53.296;6.600;2023-03-23T06:12:13;19.20;;;4.15;;
51985;SDS011;38002;53.296;6.600;2023-03-23T06:17:14;22.95;;;3.80;;
51985;SDS011;38002;53.296;6.600;2023-03-23T06:22:17;8.38;;;2.10;;
51985;SDS011;38002;53.296;6.600;2023-03-23T06:27:18;12.90;;;2.33;;
51985;SDS011;38002;53.296;6.600;2023-03-23T06:32:18;17.92;;;3.50;;
51985;SDS011;38002;53.296;6.600;2023-03-23T06:37:19;17.35;;;3.17;;
51985;SDS011;38002;53.296;6.600;2023-03-23T06:42:21;20.50;;;2.67;;
51985;SDS011;38002;53.296;6.600;2023-03-23T06:47:24;7.22;;;1.65;;
51985;SDS011;38002;53.296;6.600;2023-03-23T06:52:25;17.13;;;2.78;;
51985;SDS011;38002;53.296;6.600;2023-03-23T06:57:25;10.97;;;1.30;;
51985;SDS011;38002;53.296;6.600;2023-03-23T07:02:26;4.82;;;1.52;;
51985;SDS011;38002;53.296;6.600;2023-03-23T07:07:27;2.58;;;1.05;;
51985;SDS011;38002;53.296;6.600;2023-03-23T07:12:27;7.30;;;1.67;;
51985;SDS011;38002;53.296;6.600;2023-03-23T07:17:28;7.90;;;1.67;;
51985;SDS011;38002;53.296;6.600;2023-03-23T07:22:29;8.50;;;1.88;;
51985;SDS011;38002;53.296;6.600;2023-03-23T07:27:29;16.70;;;2.03;;
51985;SDS011;38002;53.296;6.600;2023-03-23T07:32:30;15.82;;;2.53;;
51985;SDS011;38002;53.296;6.600;2023-03-23T07:37:30;15.90;;;2.67;;
51985;SDS011;38002;53.296;6.600;2023-03-23T07:42:32;16.77;;;2.65;;
51985;SDS011;38002;53.296;6.600;2023-03-23T07:47:32;19.08;;;2.83;;
51985;SDS011;38002;53.296;6.600;2023-03-23T07:52:33;13.63;;;2.63;;
51985;SDS011;38002;53.296;6.600;2023-03-23T07:57:34;23.77;;;4.22;;
51985;SDS011;38002;53.296;6.600;2023-03-23T08:02:35;21.75;;;4.25;;
51985;SDS011;38002;53.296;6.600;2023-03-23T08:07:35;29.88;;;4.35;;
51985;SDS011;38002;53.296;6.600;2023-03-23T08:12:37;24.13;;;3.53;;
51985;SDS011;38002;53.296;6.600;2023-03-23T08:17:39;16.85;;;4.22;;
51985;SDS011;38002;53.296;6.600;2023-03-23T08:22:40;26.08;;;3.78;;
51985;SDS011;38002;53.296;6.600;2023-03-23T08:27:43;26.20;;;4.03;;
51985;SDS011;38002;53.296;6.600;2023-03-23T08:32:43;26.17;;;4.22;;
51985;SDS011;38002;53.296;6.600;2023-03-23T08:37:44;19.00;;;3.23;;
51985;SDS011;38002;53.296;6.600;2023-03-23T08:42:46;17.23;;;3.53;;
51985;SDS011;38002;53.296;6.600;2023-03-23T08:47:48;21.65;;;3.88;;
51985;SDS011;38002;53.296;6.600;2023-03-23T08:52:52;27.88;;;4.05;;
51985;SDS011;38002;53.296;6.600;2023-03-23T08:57:54;18.95;;;2.97;;
51985;SDS011;38002;53.296;6.600;2023-03-23T09:02:54;20.70;;;3.85;;
51985;SDS011;38002;53.296;6.600;2023-03-23T09:07:57;23.10;;;4.38;;
51985;SDS011;38002;53.296;6.600;2023-03-23T09:13:00;20.48;;;3.55;;
51985;SDS011;38002;53.296;6.600;2023-03-23T09:18:00;19.10;;;2.88;;
51985;SDS011;38002;53.296;6.600;2023-03-23T09:23:01;28.73;;;3.47;;
51985;SDS011;38002;53.296;6.600;2023-03-23T09:28:01;23.17;;;3.50;;
51985;SDS011;38002;53.296;6.600;2023-03-23T09:33:05;21.40;;;3.33;;
51985;SDS011;38002;53.296;6.600;2023-03-23T09:38:08;23.90;;;3.38;;
51985;SDS011;38002;53.296;6.600;2023-03-23T09:53:45;17.35;;;3.30;;
51985;SDS011;38002;53.296;6.600;2023-03-23T09:58:57;19.30;;;4.55;;
51985;SDS011;38002;53.296;6.600;2023-03-23T10:04:10;28.13;;;4.05;;
51985;SDS011;38002;53.296;6.600;2023-03-23T10:09:14;17.92;;;3.47;;
51985;SDS011;38002;53.296;6.600;2023-03-23T10:29:57;18.30;;;3.83;;
51985;SDS011;38002;53.296;6.600;2023-03-23T10:35:06;23.75;;;3.33;;
51985;SDS011;38002;53.296;6.600;2023-03-23T10:40:13;12.98;;;2.53;;
51985;SDS011;38002;53.296;6.600;2023-03-23T10:45:19;18.48;;;3.45;;
51985;SDS011;38002;53.296;6.600;2023-03-23T10:50:31;24.95;;;3.50;;
51985;SDS011;38002;53.296;6.600;2023-03-23T10:55:35;14.40;;;3.58;;
51985;SDS011;38002;53.296;6.600;2023-03-23T11:00:46;19.83;;;3.10;;
51985;SDS011;38002;53.296;6.600;2023-03-23T11:21:34;16.92;;;2.70;;
51985;SDS011;38002;53.296;6.600;2023-03-23T11:26:34;16.93;;;2.50;;
51985;SDS011;38002;53.296;6.600;2023-03-23T11:31:44;14.73;;;2.60;;
51985;SDS011;38002;53.296;6.600;2023-03-23T11:36:51;16.70;;;2.90;;
51985;SDS011;38002;53.296;6.600;2023-03-23T11:41:55;17.90;;;2.90;;
51985;SDS011;38002;53.296;6.600;2023-03-23T11:47:18;19.13;;;2.55;;
51985;SDS011;38002;53.296;6.600;2023-03-23T11:57:52;14.80;;;2.65;;
51985;SDS011;38002;53.296;6.600;2023-03-23T12:09:36;17.63;;;3.33;;
51985;SDS011;38002;53.296;6.600;2023-03-23T12:30:28;17.23;;;2.13;;
51985;SDS011;38002;53.296;6.600;2023-03-23T13:01:40;14.38;;;2.55;;
51985;SDS011;38002;53.296;6.600;2023-03-23T13:06:46;7.22;;;1.88;;
51985;SDS011;38002;53.296;6.600;2023-03-23T13:11:47;15.70;;;1.95;;
51985;SDS011;38002;53.296;6.600;2023-03-23T13:27:23;19.90;;;2.53;;
51985;SDS011;38002;53.296;6.600;2023-03-23T13:32:33;12.98;;;2.83;;
51985;SDS011;38002;53.296;6.600;2023-03-23T13:37:40;8.98;;;1.60;;
51985;SDS011;38002;53.296;6.600;2023-03-23T13:42:51;12.57;;;2.10;;
51985;SDS011;38002;53.296;6.600;2023-03-23T13:53:13;11.95;;;2.65;;
51985;SDS011;38002;53.296;6.600;2023-03-23T13:58:22;16.38;;;3.22;;
51985;SDS011;38002;53.296;6.600;2023-03-23T14:03:26;20.27;;;3.17;;
51985;SDS011;38002;53.296;6.600;2023-03-23T14:08:38;14.43;;;2.47;;
51985;SDS011;38002;53.296;6.600;2023-03-23T14:19:14;20.58;;;3.03;;
51985;SDS011;38002;53.296;6.600;2023-03-23T14:24:31;10.00;;;1.80;;
51985;SDS011;38002;53.296;6.600;2023-03-23T14:29:34;13.65;;;3.53;;
51985;SDS011;38002;53.296;6.600;2023-03-23T14:34:34;13.40;;;2.30;;
51985;SDS011;38002;53.296;6.600;2023-03-23T14:39:35;14.17;;;3.20;;
51985;SDS011;38002;53.296;6.600;2023-03-23T14:44:39;14.13;;;2.58;;
51985;SDS011;38002;53.296;6.600;2023-03-23T14:49:42;11.20;;;2.53;;
51985;SDS011;38002;53.296;6.600;2023-03-23T14:54:44;18.15;;;2.40;;
51985;SDS011;38002;53.296;6.600;2023-03-23T14:59:46;9.63;;;2.05;;
51985;SDS011;38002;53.296;6.600;2023-03-23T15:04:48;9.55;;;1.50;;
51985;SDS011;38002;53.296;6.600;2023-03-23T15:09:52;10.13;;;1.80;;
51985;SDS011;38002;53.296;6.600;2023-03-23T15:14:53;13.73;;;1.90;;
51985;SDS011;38002;53.296;6.600;2023-03-23T15:19:56;8.18;;;1.85;;
51985;SDS011;38002;53.296;6.600;2023-03-23T15:25:12;10.75;;;1.63;;
51985;SDS011;38002;53.296;6.600;2023-03-23T15:35:23;11.25;;;2.03;;
51985;SDS011;38002;53.296;6.600;2023-03-23T15:40:26;12.40;;;1.77;;
51985;SDS011;38002;53.296;6.600;2023-03-23T15:45:31;6.40;;;1.80;;
51985;SDS011;38002;53.296;6.600;2023-03-23T15:50:33;6.80;;;1.30;;
51985;SDS011;38002;53.296;6.600;2023-03-23T15:55:36;5.13;;;1.35;;
51985;SDS011;38002;53.296;6.600;2023-03-23T16:00:38;4.00;;;1.48;;
51985;SDS011;38002;53.296;6.600;2023-03-23T16:05:40;7.47;;;1.77;;
51985;SDS011;38002;53.296;6.600;2023-03-23T16:10:41;7.63;;;1.33;;
51985;SDS011;38002;53.296;6.600;2023-03-23T16:15:41;11.57;;;1.73;;
51985;SDS011;38002;53.296;6.600;2023-03-23T16:20:42;11.23;;;2.07;;
51985;SDS011;38002;53.296;6.600;2023-03-23T16:25:43;13.13;;;2.30;;
51985;SDS011;38002;53.296;6.600;2023-03-23T16:30:43;13.47;;;2.50;;
51985;SDS011;38002;53.296;6.600;2023-03-23T16:35:44;7.47;;;1.70;;
51985;SDS011;38002;53.296;6.600;2023-03-23T16:40:45;13.93;;;2.10;;
51985;SDS011;38002;53.296;6.600;2023-03-23T16:45:46;16.83;;;2.72;;
51985;SDS011;38002;53.296;6.600;2023-03-23T16:50:46;13.27;;;2.80;;
51985;SDS011;38002;53.296;6.600;2023-03-23T16:55:47;16.27;;;2.30;;
51985;SDS011;38002;53.296;6.600;2023-03-23T17:00:50;10.57;;;2.40;;
51985;SDS011;38002;53.296;6.600;2023-03-23T17:10:53;8.05;;;1.83;;
51985;SDS011;38002;53.296;6.600;2023-03-23T17:15:56;19.42;;;2.83;;
51985;SDS011;38002;53.296;6.600;2023-03-23T17:20:57;7.55;;;1.95;;
51985;SDS011;38002;53.296;6.600;2023-03-23T17:25:57;16.10;;;2.57;;
51985;SDS011;38002;53.296;6.600;2023-03-23T17:30:58;17.00;;;2.40;;
51985;SDS011;38002;53.296;6.600;2023-03-23T17:35:58;10.07;;;2.73;;
51985;SDS011;38002;53.296;6.600;2023-03-23T17:40:59;14.07;;;3.83;;
51985;SDS011;38002;53.296;6.600;2023-03-23T17:51:01;17.75;;;3.35;;
51985;SDS011;38002;53.296;6.600;2023-03-23T17:56:02;17.87;;;2.57;;
51985;SDS011;38002;53.296;6.600;2023-03-23T18:01:04;15.52;;;2.20;;
51985;SDS011;38002;53.296;6.600;2023-03-23T18:06:05;8.63;;;2.30;;
51985;SDS011;38002;53.296;6.600;2023-03-23T18:11:07;20.55;;;3.92;;
51985;SDS011;38002;53.296;6.600;2023-03-23T18:16:08;26.55;;;5.53;;
51985;SDS011;38002;53.296;6.600;2023-03-23T18:21:09;23.75;;;6.47;;
51985;SDS011;38002;53.296;6.600;2023-03-23T18:26:11;17.50;;;4.00;;
51985;SDS011;38002;53.296;6.600;2023-03-23T18:31:13;14.88;;;4.28;;
51985;SDS011;38002;53.296;6.600;2023-03-23T18:36:17;17.48;;;5.35;;
51985;SDS011;38002;53.296;6.600;2023-03-23T18:41:19;16.58;;;5.43;;
51985;SDS011;38002;53.296;6.600;2023-03-23T18:46:20;19.50;;;4.30;;
51985;SDS011;38002;53.296;6.600;2023-03-23T18:51:20;22.83;;;9.90;;
51985;SDS011;38002;53.296;6.600;2023-03-23T18:56:21;15.60;;;7.30;;
51985;SDS011;38002;53.296;6.600;2023-03-23T19:01:21;12.70;;;2.57;;
51985;SDS011;38002;53.296;6.600;2023-03-23T19:06:25;17.98;;;3.60;;
51985;SDS011;38002;53.296;6.600;2023-03-23T19:11:26;10.75;;;2.33;;
51985;SDS011;38002;53.296;6.600;2023-03-23T19:16:27;17.98;;;5.28;;
51985;SDS011;38002;53.296;6.600;2023-03-23T19:21:30;15.95;;;4.82;;
51985;SDS011;38002;53.296;6.600;2023-03-23T19:26:38;8.32;;;2.65;;
51985;SDS011;38002;53.296;6.600;2023-03-23T19:31:41;12.23;;;2.85;;
51985;SDS011;38002;53.296;6.600;2023-03-23T19:36:42;12.20;;;2.47;;
51985;SDS011;38002;53.296;6.600;2023-03-23T19:41:46;9.75;;;2.22;;
51985;SDS011;38002;53.296;6.600;2023-03-23T19:46:47;8.30;;;3.07;;
51985;SDS011;38002;53.296;6.600;2023-03-23T19:51:48;9.85;;;2.50;;
51985;SDS011;38002;53.296;6.600;2023-03-23T19:56:48;11.20;;;3.53;;
51985;SDS011;38002;53.296;6.600;2023-03-23T20:01:48;9.60;;;3.72;;
51985;SDS011;38002;53.296;6.600;2023-03-23T20:06:49;6.63;;;2.20;;
51985;SDS011;38002;53.296;6.600;2023-03-23T20:11:51;7.15;;;2.42;;
51985;SDS011;38002;53.296;6.600;2023-03-23T20:16:51;10.27;;;2.90;;
51985;SDS011;38002;53.296;6.600;2023-03-23T20:21:52;4.18;;;2.15;;
51985;SDS011;38002;53.296;6.600;2023-03-23T20:26:52;4.72;;;2.17;;
51985;SDS011;38002;53.296;6.600;2023-03-23T20:31:53;6.67;;;3.43;;
51985;SDS011;38002;53.296;6.600;2023-03-23T20:36:53;8.83;;;3.57;;
51985;SDS011;38002;53.296;6.600;2023-03-23T20:41:57;10.57;;;3.15;;
51985;SDS011;38002;53.296;6.600;2023-03-23T20:47:01;8.60;;;3.85;;
51985;SDS011;38002;53.296;6.600;2023-03-23T20:52:03;8.77;;;3.40;;
51985;SDS011;38002;53.296;6.600;2023-03-23T20:57:06;9.27;;;2.80;;
51985;SDS011;38002;53.296;6.600;2023-03-23T21:02:10;10.20;;;3.93;;
51985;SDS011;38002;53.296;6.600;2023-03-23T21:07:14;8.57;;;2.72;;
51985;SDS011;38002;53.296;6.600;2023-03-23T21:12:15;11.13;;;4.90;;
51985;SDS011;38002;53.296;6.600;2023-03-23T21:17:15;9.20;;;4.23;;
51985;SDS011;38002;53.296;6.600;2023-03-23T21:22:16;6.13;;;3.83;;
51985;SDS011;38002;53.296;6.600;2023-03-23T21:27:17;6.10;;;3.15;;
51985;SDS011;38002;53.296;6.600;2023-03-23T21:32:18;6.60;;;4.80;;
51985;SDS011;38002;53.296;6.600;2023-03-23T21:37:18;5.35;;;4.20;;
51985;SDS011;38002;53.296;6.600;2023-03-23T21:42:20;7.10;;;2.72;;
51985;SDS011;38002;53.296;6.600;2023-03-23T21:47:29;6.78;;;2.63;;
51985;SDS011;38002;53.296;6.600;2023-03-23T21:52:29;6.32;;;2.63;;
51985;SDS011;38002;53.296;6.600;2023-03-23T22:02:33;9.73;;;3.55;;
51985;SDS011;38002;53.296;6.600;2023-03-23T22:07:34;10.37;;;3.93;;
51985;SDS011;38002;53.296;6.600;2023-03-23T22:12:38;7.82;;;4.25;;
51985;SDS011;38002;53.296;6.600;2023-03-23T22:17:39;7.97;;;4.60;;
51985;SDS011;38002;53.296;6.600;2023-03-23T22:22:40;10.02;;;5.30;;
51985;SDS011;38002;53.296;6.600;2023-03-23T22:27:40;14.95;;;5.40;;
51985;SDS011;38002;53.296;6.600;2023-03-23T22:32:41;11.97;;;4.93;;
51985;SDS011;38002;53.296;6.600;2023-03-23T22:37:42;10.05;;;4.78;;
51985;SDS011;38002;53.296;6.600;2023-03-23T22:42:42;13.13;;;4.72;;
51985;SDS011;38002;53.296;6.600;2023-03-23T22:47:43;13.57;;;4.57;;
51985;SDS011;38002;53.296;6.600;2023-03-23T22:52:44;8.02;;;4.78;;
51985;SDS011;38002;53.296;6.600;2023-03-23T22:57:44;8.90;;;4.05;;
51985;SDS011;38002;53.296;6.600;2023-03-23T23:02:45;9.85;;;4.28;;
51985;SDS011;38002;53.296;6.600;2023-03-23T23:07:45;8.93;;;4.00;;
51985;SDS011;38002;53.296;6.600;2023-03-23T23:12:46;13.20;;;4.78;;
51985;SDS011;38002;53.296;6.600;2023-03-23T23:17:46;7.10;;;3.73;;
51985;SDS011;38002;53.296;6.600;2023-03-23T23:22:47;12.02;;;4.80;;
51985;SDS011;38002;53.296;6.600;2023-03-23T23:27:47;7.63;;;4.22;;
51985;SDS011;38002;53.296;6.600;2023-03-23T23:32:48;10.70;;;4.32;;
51985;SDS011;38002;53.296;6.600;2023-03-23T23:37:51;11.02;;;3.88;;
51985;SDS011;38002;53.296;6.600;2023-03-23T23:42:51;8.02;;;3.28;;
51985;SDS011;38002;53.296;6.600;2023-03-23T23:47:52;10.43;;;4.22;;
51985;SDS011;38002;53.296;6.600;2023-03-23T23:52:53;9.02;;;4.88;;
51985;SDS011;38002;53.296;6.600;2023-03-23T23:57:53;11.45;;;4.93;;
